Time;durP1;ratioP1;P1;durP2;ratioP2;P2;SDS_P1;SDS_P2;PMS_P1;PMS_P2;Temp;Humidity;BMP_temperature;BMP_pressure;BME280_temperature;BME280_humidity;BME280_pressure;Samples;Min_cycle;Max_cycle;Signal;HPM_P1;HPM_P2
2022/07/17 00:01:19;;;;;;;8.93;2.92;;;11.70;99.90;;;;;;5029386;28;20080;-70
2022/07/17 00:03:45;;;;;;;6.43;2.40;;;11.70;99.90;;;;;;5045345;28;20041;-71
2022/07/17 00:06:11;;;;;;;6.40;2.83;;;11.70;99.90;;;;;;5060834;28;20037;-71
2022/07/17 00:08:36;;;;;;;8.20;2.75;;;11.60;99.90;;;;;;5027432;28;20057;-70
2022/07/17 00:11:02;;;;;;;5.57;2.38;;;11.70;99.90;;;;;;5033084;28;20488;-71
2022/07/17 00:13:28;;;;;;;9.30;2.40;;;11.60;99.90;;;;;;5048480;28;20055;-70
2022/07/17 00:15:54;;;;;;;7.30;2.80;;;11.60;99.90;;;;;;5047789;28;20042;-71
2022/07/17 00:18:20;;;;;;;12.27;3.20;;;11.60;99.90;;;;;;5016448;28;20065;-70
2022/07/17 00:20:46;;;;;;;8.93;2.75;;;11.50;99.90;;;;;;5031473;28;20453;-71
2022/07/17 00:23:11;;;;;;;7.22;2.92;;;11.50;99.90;;;;;;5034131;28;20690;-71
2022/07/17 00:25:37;;;;;;;5.30;2.30;;;11.50;99.90;;;;;;5041051;28;20098;-71
2022/07/17 00:28:03;;;;;;;9.48;2.63;;;11.50;99.90;;;;;;5018406;28;20045;-71
2022/07/17 00:30:29;;;;;;;6.10;2.45;;;11.40;99.90;;;;;;5032416;28;20049;-71
2022/07/17 00:32:54;;;;;;;4.97;2.08;;;11.40;99.90;;;;;;5033061;28;20042;-71
2022/07/17 00:35:20;;;;;;;7.47;2.63;;;11.30;99.90;;;;;;5041603;28;20136;-71
2022/07/17 00:37:47;;;;;;;6.15;2.70;;;11.30;99.90;;;;;;5015806;28;20059;-71
2022/07/17 00:40:19;;;;;;;6.53;2.97;;;11.20;99.90;;;;;;5043355;28;20523;-71
2022/07/17 00:42:44;;;;;;;;;;;11.20;99.90;;;;;;5045738;28;20037;-71
2022/07/17 00:45:11;;;;;;;9.18;3.50;;;11.10;99.90;;;;;;5037861;28;19932;-70
2022/07/17 00:47:59;;;;;;;6.15;3.35;;;11.20;99.90;;;;;;5018921;28;20056;-70
2022/07/17 00:50:37;;;;;;;11.23;3.42;;;11.10;99.90;;;;;;5032378;28;20055;-71
2022/07/17 00:53:04;;;;;;;8.90;3.80;;;11.10;99.90;;;;;;5030271;28;20507;-70
2022/07/17 00:55:30;;;;;;;8.77;3.95;;;11.10;99.90;;;;;;5045098;28;20079;-70
2022/07/17 00:57:56;;;;;;;9.23;3.80;;;11.10;99.90;;;;;;5027904;28;20519;-70
2022/07/17 01:00:23;;;;;;;10.63;4.05;;;11.10;99.90;;;;;;5032274;28;20077;-71
2022/07/17 01:02:52;;;;;;;10.27;4.25;;;11.00;99.90;;;;;;5030755;28;20129;-71
2022/07/17 01:05:19;;;;;;;8.20;4.15;;;11.10;99.90;;;;;;5032200;28;20060;-71
2022/07/17 01:07:44;;;;;;;9.38;3.72;;;11.10;99.90;;;;;;5015581;28;20049;-71
2022/07/17 01:10:11;;;;;;;7.30;3.67;;;11.00;99.90;;;;;;5047527;28;20503;-70
2022/07/17 01:12:38;;;;;;;9.82;3.85;;;11.00;99.90;;;;;;5041989;28;20073;-71
2022/07/17 01:15:05;;;;;;;6.75;3.40;;;11.00;99.90;;;;;;5038438;28;20052;-70
2022/07/17 01:17:31;;;;;;;7.88;3.63;;;10.90;99.90;;;;;;5015339;28;20037;-70
2022/07/17 01:19:56;;;;;;;9.05;3.70;;;11.00;99.90;;;;;;5031578;28;20135;-71
2022/07/17 01:22:22;;;;;;;7.03;3.10;;;11.00;99.90;;;;;;5033311;28;20041;-71
2022/07/17 01:24:48;;;;;;;8.18;3.20;;;11.00;99.90;;;;;;5042961;28;20423;-71
2022/07/17 01:27:15;;;;;;;6.60;3.20;;;11.00;99.90;;;;;;5036044;28;20399;-70
2022/07/17 01:29:40;;;;;;;9.95;3.15;;;11.00;99.90;;;;;;5051249;28;20053;-70
2022/07/17 01:32:06;;;;;;;5.55;2.85;;;11.00;99.90;;;;;;5050313;28;20055;-70
2022/07/17 01:34:32;;;;;;;8.40;3.20;;;11.00;99.90;;;;;;5046619;28;20536;-70
2022/07/17 01:36:58;;;;;;;6.88;3.47;;;11.00;99.90;;;;;;5015391;28;20049;-70
2022/07/17 01:42:07;;;;;;;5.78;2.80;;;11.00;99.90;;;;;;5049960;28;20091;-70
2022/07/17 01:44:33;;;;;;;4.90;3.22;;;11.10;99.90;;;;;;5036111;28;20060;-70
2022/07/17 01:46:59;;;;;;;7.57;3.03;;;10.90;99.90;;;;;;5023364;28;20076;-70
2022/07/17 01:49:25;;;;;;;6.18;2.92;;;11.00;99.90;;;;;;5048297;28;20079;-70
2022/07/17 01:51:50;;;;;;;6.80;2.65;;;11.00;99.90;;;;;;5050046;28;20400;-70
2022/07/17 01:54:16;;;;;;;6.90;3.33;;;11.00;99.90;;;;;;5031165;28;20045;-71
2022/07/17 01:56:42;;;;;;;5.95;2.92;;;11.00;99.90;;;;;;5026399;28;20096;-70
2022/07/17 01:59:08;;;;;;;8.18;3.50;;;11.00;99.90;;;;;;5047213;28;20505;-70
2022/07/17 02:01:34;;;;;;;7.25;2.75;;;11.00;99.90;;;;;;5050741;28;20119;-70
2022/07/17 02:03:59;;;;;;;7.45;3.20;;;11.00;99.90;;;;;;5044650;28;20133;-70
2022/07/17 02:06:25;;;;;;;8.80;3.05;;;11.00;99.90;;;;;;5018627;28;20909;-71
2022/07/17 02:08:51;;;;;;;11.07;3.13;;;11.00;99.90;;;;;;5031830;28;20053;-70
2022/07/17 02:11:18;;;;;;;8.00;3.13;;;11.00;99.90;;;;;;5050876;28;20056;-71
2022/07/17 02:13:43;;;;;;;9.10;3.15;;;11.00;99.90;;;;;;5049824;28;20045;-70
2022/07/17 02:16:09;;;;;;;6.95;2.80;;;11.00;99.90;;;;;;5034705;28;20103;-72
2022/07/17 02:18:35;;;;;;;7.68;3.25;;;11.00;99.90;;;;;;5027190;28;20462;-71
2022/07/17 02:21:01;;;;;;;6.18;2.42;;;11.00;99.90;;;;;;5049788;28;20060;-71
2022/07/17 02:23:28;;;;;;;4.85;2.55;;;11.00;99.90;;;;;;5043815;28;20053;-70
2022/07/17 02:25:54;;;;;;;6.47;3.22;;;11.00;99.90;;;;;;5041749;28;20086;-71
2022/07/17 02:28:20;;;;;;;8.88;2.63;;;11.00;99.90;;;;;;5023479;28;20045;-71
2022/07/17 02:30:47;;;;;;;7.25;2.78;;;11.00;99.90;;;;;;5029167;28;20058;-70
2022/07/17 02:33:13;;;;;;;10.75;2.90;;;11.10;99.90;;;;;;5029894;28;20132;-71
2022/07/17 02:35:39;;;;;;;10.57;3.22;;;11.00;99.90;;;;;;5043187;28;20127;-71
2022/07/17 02:38:04;;;;;;;5.35;3.05;;;10.70;99.90;;;;;;5032679;28;20044;-71
2022/07/17 02:40:30;;;;;;;8.02;3.33;;;10.50;99.90;;;;;;5036952;28;20577;-71
2022/07/17 02:42:56;;;;;;;4.78;3.38;;;10.30;99.90;;;;;;5035570;28;20041;-71
2022/07/17 02:45:24;;;;;;;6.88;3.47;;;10.10;99.90;;;;;;5046038;28;20084;-71
2022/07/17 02:47:51;;;;;;;5.88;3.33;;;10.10;99.90;;;;;;5020604;28;20076;-71
2022/07/17 02:50:17;;;;;;;5.63;3.42;;;9.90;99.90;;;;;;5049727;28;20102;-71
2022/07/17 02:52:43;;;;;;;7.97;3.35;;;9.90;99.90;;;;;;5048970;28;20503;-71
2022/07/17 02:55:10;;;;;;;6.53;3.25;;;9.80;99.90;;;;;;5050101;28;20099;-71
2022/07/17 02:57:37;;;;;;;8.40;3.83;;;9.90;99.90;;;;;;5029012;28;20523;-71
2022/07/17 03:00:08;;;;;;;9.50;3.72;;;10.00;99.90;;;;;;5029172;28;20377;-70
2022/07/17 03:02:34;;;;;;;8.65;4.35;;;10.10;99.90;;;;;;5027666;28;20038;-70
2022/07/17 03:04:59;;;;;;;9.07;3.92;;;10.30;99.90;;;;;;5042722;28;20082;-71
2022/07/17 03:07:25;;;;;;;8.85;3.85;;;10.30;99.90;;;;;;5033743;28;20492;-71
2022/07/17 03:09:51;;;;;;;7.72;3.63;;;10.20;99.90;;;;;;5049199;28;20051;-71
2022/07/17 03:12:16;;;;;;;5.85;3.38;;;10.30;99.90;;;;;;5049140;28;20102;-71
2022/07/17 03:14:42;;;;;;;5.18;3.05;;;10.30;99.90;;;;;;5052357;28;20060;-71
2022/07/17 03:17:08;;;;;;;5.32;3.50;;;10.30;99.90;;;;;;5014719;28;20037;-70
2022/07/17 03:19:34;;;;;;;9.60;4.10;;;10.30;99.90;;;;;;5028489;28;20128;-71
2022/07/17 03:22:00;;;;;;;5.78;3.33;;;10.30;99.90;;;;;;5031032;28;20041;-71
2022/07/17 03:24:25;;;;;;;8.60;3.47;;;10.30;99.90;;;;;;5029000;28;20052;-71
2022/07/17 03:26:51;;;;;;;5.45;3.35;;;10.30;99.90;;;;;;5033034;28;20041;-72
2022/07/17 03:29:17;;;;;;;7.75;3.15;;;10.40;99.90;;;;;;5064420;28;20099;-71
2022/07/17 03:31:47;;;;;;;6.78;3.08;;;10.40;99.90;;;;;;5043400;28;20115;-71
2022/07/17 03:34:13;;;;;;;5.53;3.10;;;10.60;99.90;;;;;;5030033;28;20053;-71
2022/07/17 03:36:38;;;;;;;8.65;3.28;;;10.60;99.90;;;;;;5022147;28;20045;-71
2022/07/17 03:39:04;;;;;;;7.07;3.05;;;10.60;99.90;;;;;;5051539;28;20045;-71
2022/07/17 03:41:30;;;;;;;6.18;3.50;;;10.70;99.90;;;;;;5039149;28;20056;-71
2022/07/17 03:43:56;;;;;;;7.07;3.63;;;10.70;99.90;;;;;;5038190;28;20404;-71
2022/07/17 03:46:22;;;;;;;7.68;3.33;;;10.80;99.90;;;;;;5032602;28;20519;-71
2022/07/17 03:48:48;;;;;;;7.97;3.67;;;10.80;99.90;;;;;;5029243;28;20046;-71
2022/07/17 03:51:13;;;;;;;6.43;3.40;;;10.80;99.90;;;;;;5033992;28;20073;-71
2022/07/17 03:53:39;;;;;;;9.20;3.78;;;10.80;99.90;;;;;;5031351;28;20515;-70
2022/07/17 03:56:05;;;;;;;10.90;3.70;;;10.90;99.90;;;;;;5037717;28;20084;-71
2022/07/17 03:58:31;;;;;;;10.57;3.83;;;10.90;99.90;;;;;;5025279;28;20045;-71
2022/07/17 04:00:57;;;;;;;6.95;3.70;;;10.90;99.90;;;;;;5045408;28;20049;-71
2022/07/17 04:03:23;;;;;;;9.00;3.50;;;10.90;99.90;;;;;;5032181;28;20046;-71
2022/07/17 04:05:49;;;;;;;5.82;2.95;;;11.00;99.90;;;;;;5038953;28;20047;-71
2022/07/17 04:08:15;;;;;;;8.27;3.55;;;11.00;99.90;;;;;;5016194;28;20040;-71
2022/07/17 04:10:40;;;;;;;7.63;3.40;;;11.00;99.90;;;;;;5038959;28;20053;-70
2022/07/17 04:13:06;;;;;;;10.10;3.35;;;11.10;99.90;;;;;;5039788;28;20033;-71
2022/07/17 04:15:52;;;;;;;6.85;3.38;;;11.10;99.90;;;;;;5045077;28;20551;-71
2022/07/17 04:18:27;;;;;;;5.03;2.70;;;11.10;99.90;;;;;;5015762;28;20045;-71
2022/07/17 04:20:55;;;;;;;5.15;2.65;;;11.10;99.90;;;;;;5043023;28;20044;-71
2022/07/17 04:23:21;;;;;;;9.15;3.38;;;11.20;99.90;;;;;;5046727;28;20061;-71
2022/07/17 04:25:47;;;;;;;12.65;3.35;;;11.20;99.90;;;;;;5042994;28;20083;-71
2022/07/17 04:28:13;;;;;;;9.27;3.20;;;11.20;99.90;;;;;;5018848;28;20037;-71
2022/07/17 04:30:38;;;;;;;5.30;3.35;;;11.30;99.90;;;;;;5032824;28;20120;-71
2022/07/17 04:33:04;;;;;;;6.18;2.85;;;11.30;99.90;;;;;;5034912;28;20076;-71
2022/07/17 04:35:31;;;;;;;6.93;3.35;;;11.30;99.90;;;;;;5041218;28;20060;-71
2022/07/17 04:37:57;;;;;;;7.57;3.70;;;11.30;99.90;;;;;;5016100;28;20519;-71
2022/07/17 04:40:23;;;;;;;5.65;3.10;;;11.40;99.90;;;;;;5032742;28;20053;-71
2022/07/17 04:42:48;;;;;;;6.65;3.63;;;11.30;99.90;;;;;;5048995;28;20114;-71
2022/07/17 04:45:14;;;;;;;6.38;4.05;;;11.30;99.90;;;;;;5050205;28;20496;-71
2022/07/17 04:47:40;;;;;;;9.00;3.95;;;11.30;99.90;;;;;;5033263;28;20056;-71
2022/07/17 04:50:08;;;;;;;8.18;4.00;;;11.20;99.90;;;;;;5030045;28;20041;-71
2022/07/17 04:52:34;;;;;;;10.10;4.60;;;11.20;99.90;;;;;;5031024;28;20045;-71
2022/07/17 04:54:59;;;;;;;9.55;4.47;;;11.20;99.90;;;;;;5030047;28;20111;-70
2022/07/17 04:57:25;;;;;;;8.55;4.28;;;11.20;99.90;;;;;;5014357;28;20079;-71
2022/07/17 04:59:51;;;;;;;3.83;3.40;;;11.20;99.90;;;;;;5031279;28;20052;-70
2022/07/17 05:02:16;;;;;;;5.55;3.83;;;11.20;99.90;;;;;;5046592;28;20057;-71
2022/07/17 05:04:42;;;;;;;6.75;3.35;;;11.30;99.90;;;;;;5052154;28;20041;-71
2022/07/17 05:07:08;;;;;;;7.05;3.40;;;11.30;99.90;;;;;;5036295;28;20068;-70
2022/07/17 05:09:34;;;;;;;6.50;3.70;;;11.30;99.90;;;;;;5040627;28;20045;-71
2022/07/17 05:12:00;;;;;;;6.88;3.28;;;11.30;99.90;;;;;;5027244;28;20045;-70
2022/07/17 05:14:25;;;;;;;6.82;3.22;;;11.30;99.90;;;;;;5034377;28;20451;-70
2022/07/17 05:16:51;;;;;;;7.07;3.50;;;11.40;99.90;;;;;;5029811;28;20052;-70
2022/07/17 05:19:17;;;;;;;8.35;3.20;;;11.50;99.90;;;;;;5038539;28;20052;-70
2022/07/17 05:21:42;;;;;;;8.27;3.42;;;11.60;99.90;;;;;;5036964;28;20045;-71
2022/07/17 05:24:08;;;;;;;8.85;3.40;;;11.60;99.90;;;;;;5037899;28;20037;-71
2022/07/17 05:26:34;;;;;;;6.68;2.42;;;11.60;99.90;;;;;;5036917;28;20136;-71
2022/07/17 05:28:59;;;;;;;9.13;2.58;;;11.70;99.90;;;;;;5038693;28;20080;-71
2022/07/17 05:31:25;;;;;;;9.48;2.83;;;11.70;99.90;;;;;;5032742;28;20056;-71
2022/07/17 05:33:51;;;;;;;5.40;2.75;;;11.80;99.90;;;;;;5039483;28;20052;-70
2022/07/17 05:36:16;;;;;;;6.53;2.90;;;11.80;99.90;;;;;;5018800;28;20120;-72
2022/07/17 05:38:42;;;;;;;4.95;2.20;;;11.90;99.90;;;;;;5036775;28;20151;-71
2022/07/17 05:41:07;;;;;;;5.97;2.20;;;12.00;99.90;;;;;;5050353;28;20476;-70
2022/07/17 05:43:33;;;;;;;3.95;2.05;;;12.10;99.90;;;;;;5039301;28;20373;-71
2022/07/17 05:45:59;;;;;;;5.45;2.38;;;12.20;99.90;;;;;;5039191;28;20104;-71
2022/07/17 05:48:26;;;;;;;5.60;2.13;;;12.30;99.90;;;;;;5022677;28;20038;-71
2022/07/17 05:50:51;;;;;;;7.60;2.22;;;12.50;99.90;;;;;;5039232;28;20376;-70
2022/07/17 05:53:17;;;;;;;6.18;1.83;;;12.60;99.90;;;;;;5039027;28;20056;-71
2022/07/17 05:55:43;;;;;;;7.18;2.42;;;12.80;99.90;;;;;;5044608;28;20542;-71
2022/07/17 05:58:10;;;;;;;4.78;1.73;;;13.00;99.90;;;;;;5021385;28;20073;-70
2022/07/17 06:00:36;;;;;;;6.88;2.00;;;13.10;99.90;;;;;;5039031;28;20404;-71
2022/07/17 06:03:02;;;;;;;8.18;2.20;;;13.30;99.90;;;;;;5039640;28;20104;-72
2022/07/17 06:05:28;;;;;;;8.73;2.40;;;13.50;99.90;;;;;;5042785;28;20447;-71
2022/07/17 06:07:56;;;;;;;6.38;1.88;;;13.70;99.90;;;;;;5030895;28;20041;-70
2022/07/17 06:10:22;;;;;;;6.28;2.30;;;13.80;99.90;;;;;;5048985;28;20048;-72
2022/07/17 06:12:49;;;;;;;4.20;2.20;;;13.90;99.90;;;;;;5024773;28;20037;-71
2022/07/17 06:15:15;;;;;;;10.38;1.70;;;14.10;99.90;;;;;;5045327;28;21458;-71
2022/07/17 06:17:41;;;;;;;5.40;1.77;;;14.40;99.90;;;;;;5029083;28;20139;-72
2022/07/17 06:20:08;;;;;;;4.38;1.40;;;14.40;99.90;;;;;;5042508;28;20254;-71
2022/07/17 06:22:34;;;;;;;5.13;1.52;;;14.60;99.90;;;;;;5045874;28;20037;-71
2022/07/17 06:25:00;;;;;;;4.95;1.83;;;14.60;99.90;;;;;;5043517;28;20048;-74
2022/07/17 06:27:26;;;;;;;7.78;1.52;;;14.70;99.90;;;;;;5030568;28;20106;-73
2022/07/17 06:29:51;;;;;;;8.10;1.90;;;15.00;99.90;;;;;;5042558;28;20076;-71
2022/07/17 06:32:17;;;;;;;4.80;1.08;;;15.00;99.90;;;;;;5044065;28;20077;-71
2022/07/17 06:34:43;;;;;;;6.15;1.60;;;15.00;99.90;;;;;;5042856;28;20056;-71
2022/07/17 06:37:09;;;;;;;6.40;1.38;;;15.00;99.90;;;;;;5027077;28;20045;-71
2022/07/17 06:39:35;;;;;;;3.50;1.15;;;15.00;99.90;;;;;;5041820;28;20041;-71
2022/07/17 06:42:01;;;;;;;4.15;1.05;;;15.00;99.90;;;;;;5045435;28;20055;-70
2022/07/17 06:44:27;;;;;;;4.93;1.20;;;15.00;99.90;;;;;;5039199;28;20045;-70
2022/07/17 06:46:52;;;;;;;5.30;1.10;;;15.00;99.90;;;;;;5026089;28;20091;-70
2022/07/17 06:49:18;;;;;;;4.35;1.02;;;15.00;99.90;;;;;;5039800;28;20041;-70
2022/07/17 06:51:45;;;;;;;4.20;1.23;;;15.00;99.90;;;;;;5042234;28;20076;-71
2022/07/17 06:54:12;;;;;;;6.28;1.50;;;15.00;99.90;;;;;;5038993;28;20053;-71
2022/07/17 06:56:38;;;;;;;6.38;1.10;;;14.90;99.90;;;;;;5032802;28;20033;-71
2022/07/17 06:59:06;;;;;;;3.75;0.90;;;14.90;99.90;;;;;;5036181;28;20053;-71
2022/07/17 07:01:34;;;;;;;6.60;1.30;;;15.00;99.90;;;;;;5042756;28;20120;-71
2022/07/17 07:03:59;;;;;;;4.63;1.20;;;15.00;99.90;;;;;;5040839;28;20042;-71
2022/07/17 07:06:25;;;;;;;5.80;1.23;;;15.00;99.90;;;;;;5030247;28;20393;-72
2022/07/17 07:08:51;;;;;;;7.10;1.25;;;15.00;99.90;;;;;;5033511;28;20128;-72
2022/07/17 07:11:16;;;;;;;4.22;1.50;;;15.00;99.90;;;;;;5044592;28;20049;-71
2022/07/17 07:13:42;;;;;;;5.47;1.40;;;15.00;99.90;;;;;;5045384;28;20132;-72
2022/07/17 07:16:08;;;;;;;9.73;1.77;;;15.00;99.90;;;;;;5024657;28;20486;-73
2022/07/17 07:18:34;;;;;;;8.05;1.50;;;15.10;99.90;;;;;;5035106;28;20825;-72
2022/07/17 07:20:59;;;;;;;6.10;1.40;;;15.10;99.90;;;;;;5047978;28;20041;-71
2022/07/17 07:23:25;;;;;;;2.90;1.08;;;15.30;99.90;;;;;;5047215;28;20045;-70
2022/07/17 07:25:51;;;;;;;6.18;1.42;;;15.30;99.90;;;;;;5043653;28;20211;-70
2022/07/17 07:28:16;;;;;;;6.85;1.30;;;15.30;99.90;;;;;;5029918;28;20561;-70
2022/07/17 07:30:42;;;;;;;3.75;1.20;;;15.30;99.90;;;;;;5051083;28;20049;-70
2022/07/17 07:33:08;;;;;;;4.60;1.10;;;15.40;99.90;;;;;;5032999;28;20432;-70
2022/07/17 07:35:33;;;;;;;5.10;1.20;;;15.40;99.90;;;;;;5043100;28;20059;-71
2022/07/17 07:37:59;;;;;;;4.78;0.95;;;15.50;99.90;;;;;;5029611;28;20519;-71
2022/07/17 07:40:25;;;;;;;5.63;1.15;;;15.60;99.90;;;;;;5036131;28;20504;-72
2022/07/17 07:42:50;;;;;;;4.15;0.80;;;15.50;99.90;;;;;;5036763;28;20454;-71
2022/07/17 07:45:16;;;;;;;4.45;1.17;;;15.60;99.90;;;;;;5040029;28;20045;-71
2022/07/17 07:47:47;;;;;;;3.88;1.45;;;15.60;99.90;;;;;;5022534;28;21165;-71
2022/07/17 07:50:14;;;;;;;3.72;1.27;;;15.60;99.90;;;;;;5041623;28;20531;-73
2022/07/17 07:52:40;;;;;;;7.25;1.10;;;15.70;99.90;;;;;;5048974;28;20045;-72
2022/07/17 07:55:08;;;;;;;5.97;1.10;;;15.80;99.90;;;;;;5048828;28;20045;-71
2022/07/17 07:57:34;;;;;;;4.38;0.82;;;15.80;99.90;;;;;;5023798;28;20071;-73
2022/07/17 08:00:00;;;;;;;6.35;1.05;;;15.90;99.90;;;;;;5046670;28;20037;-72
2022/07/17 08:02:25;;;;;;;5.72;1.05;;;15.90;99.90;;;;;;5038208;28;20052;-71
2022/07/17 08:04:51;;;;;;;4.25;0.90;;;15.80;99.90;;;;;;5039840;28;20379;-73
2022/07/17 08:07:17;;;;;;;5.45;1.17;;;15.90;99.90;;;;;;5024590;28;20152;-71
2022/07/17 08:09:42;;;;;;;7.28;1.05;;;16.00;99.90;;;;;;5048834;28;20059;-71
2022/07/17 08:12:08;;;;;;;5.88;1.02;;;16.00;99.90;;;;;;5033135;28;20052;-71
2022/07/17 08:14:34;;;;;;;4.80;1.08;;;16.20;99.90;;;;;;5042912;28;20059;-72
2022/07/17 08:16:59;;;;;;;4.10;0.80;;;16.20;99.90;;;;;;5016055;28;20102;-74
2022/07/17 08:19:25;;;;;;;6.32;0.88;;;16.40;99.90;;;;;;5047630;28;20073;-72
2022/07/17 08:21:50;;;;;;;6.40;0.90;;;16.30;99.90;;;;;;5046827;28;20049;-72
2022/07/17 08:24:16;;;;;;;9.93;0.90;;;16.40;99.90;;;;;;5041233;28;20056;-72
2022/07/17 08:26:43;;;;;;;5.20;1.10;;;16.40;99.90;;;;;;5013130;28;20120;-72
2022/07/17 08:29:09;;;;;;;5.43;0.85;;;16.60;99.90;;;;;;5048349;28;20052;-72
2022/07/17 08:31:34;;;;;;;3.80;0.88;;;16.50;99.90;;;;;;5046766;28;20071;-71
2022/07/17 08:34:00;;;;;;;4.65;1.00;;;16.70;99.90;;;;;;5047389;28;20045;-72
2022/07/17 08:36:26;;;;;;;4.65;1.00;;;16.80;99.90;;;;;;5029747;28;20377;-72
2022/07/17 08:38:51;;;;;;;7.05;1.15;;;16.70;99.90;;;;;;5037566;28;20045;-73
2022/07/17 08:41:21;;;;;;;5.53;0.70;;;16.70;99.90;;;;;;5034289;28;20045;-71
2022/07/17 08:43:48;;;;;;;3.65;0.88;;;16.80;99.90;;;;;;5038178;28;20125;-73
2022/07/17 08:46:16;;;;;;;5.57;0.80;;;17.00;99.90;;;;;;5025904;28;20084;-72
2022/07/17 08:48:44;;;;;;;3.47;0.63;;;16.90;99.90;;;;;;5031603;28;20051;-80
2022/07/17 08:51:11;;;;;;;8.65;1.40;;;16.90;99.90;;;;;;5039522;28;20045;-75
2022/07/17 08:53:43;;;;;;;5.05;0.80;;;17.10;99.90;;;;;;5029884;28;20056;-79
2022/07/17 08:57:17;;;;;;;5.00;0.73;;;17.20;99.90;;;;;;5043863;28;20082;-77
2022/07/17 08:59:57;;;;;;;6.30;0.77;;;17.20;99.90;;;;;;5021840;28;20045;-78
2022/07/17 09:02:30;;;;;;;6.40;0.93;;;17.20;99.90;;;;;;5031995;28;20052;-77
2022/07/17 09:05:00;;;;;;;5.13;0.90;;;17.10;99.90;;;;;;5047275;28;20056;-78
2022/07/17 09:07:55;;;;;;;3.60;0.77;;;17.10;99.90;;;;;;5018800;28;20174;-77
2022/07/17 09:10:56;;;;;;;3.53;0.90;;;17.20;99.90;;;;;;5035727;28;20120;-78
2022/07/17 09:13:40;;;;;;;3.40;0.65;;;17.30;99.90;;;;;;5035174;28;20053;-79
2022/07/17 09:17:03;;;;;;;3.95;0.70;;;17.50;99.90;;;;;;5037581;28;20058;-81
2022/07/17 09:19:58;;;;;;;7.93;0.85;;;17.60;99.90;;;;;;5029715;28;20063;-79
2022/07/17 09:22:29;;;;;;;5.03;0.90;;;17.50;99.90;;;;;;5018293;28;20041;-78
2022/07/17 09:24:58;;;;;;;2.22;0.85;;;17.60;99.90;;;;;;5036444;28;20552;-80
2022/07/17 09:27:41;;;;;;;3.35;0.90;;;17.70;99.90;;;;;;5029252;28;20261;-84
2022/07/17 09:30:42;;;;;;;2.75;0.80;;;17.90;99.90;;;;;;5037555;28;20053;-79
2022/07/17 09:33:31;;;;;;;6.00;0.85;;;17.70;99.90;;;;;;4995812;28;20046;-80
2022/07/17 09:36:58;;;;;;;2.97;1.08;;;17.80;99.90;;;;;;5010487;28;20778;-82
2022/07/17 09:39:41;;;;;;;3.33;0.82;;;17.90;99.90;;;;;;5011973;28;20388;-82
2022/07/17 09:42:28;;;;;;;5.32;1.13;;;18.00;99.90;;;;;;5019356;28;20046;-81
2022/07/17 09:45:03;;;;;;;5.07;1.05;;;17.90;99.90;;;;;;5003298;28;20068;-80
2022/07/17 09:47:30;;;;;;;2.72;0.88;;;18.00;99.90;;;;;;5001205;28;20053;-80
2022/07/17 09:49:58;;;;;;;2.60;0.80;;;18.00;99.90;;;;;;4975480;28;20072;-80
2022/07/17 09:52:32;;;;;;;5.13;1.00;;;18.00;99.90;;;;;;4987294;28;20516;-80
2022/07/17 09:54:59;;;;;;;2.35;0.70;;;18.10;99.90;;;;;;5007897;28;20080;-83
2022/07/17 09:57:34;;;;;;;2.90;0.90;;;18.20;99.90;;;;;;4990569;28;20322;-80
2022/07/17 10:00:12;;;;;;;3.22;1.00;;;18.10;99.90;;;;;;5015943;28;20053;-80
2022/07/17 10:02:45;;;;;;;2.80;0.70;;;18.30;99.90;;;;;;5012887;28;20041;-82
2022/07/17 10:05:15;;;;;;;2.60;1.00;;;18.50;99.90;;;;;;5006194;28;20052;-81
2022/07/17 10:07:45;;;;;;;2.60;0.75;;;18.60;99.90;;;;;;4993605;28;20049;-79
2022/07/17 10:10:16;;;;;;;2.85;0.85;;;18.50;99.90;;;;;;5002894;28;20053;-80
2022/07/17 10:12:43;;;;;;;6.50;1.15;;;18.60;99.90;;;;;;5001881;28;20106;-83
2022/07/17 10:15:13;;;;;;;3.00;1.00;;;18.70;99.90;;;;;;5009940;28;20211;-81
2022/07/17 10:17:42;;;;;;;4.22;0.98;;;18.70;99.90;;;;;;4991904;28;20053;-82
2022/07/17 10:20:13;;;;;;;3.72;0.93;;;18.60;99.90;;;;;;4973529;28;20104;-82
2022/07/17 10:22:52;;;;;;;2.65;0.98;;;18.70;99.90;;;;;;5001238;28;20049;-78
2022/07/17 10:25:32;;;;;;;4.60;1.00;;;18.80;99.90;;;;;;5005790;28;20045;-77
2022/07/17 10:27:58;;;;;;;4.50;0.88;;;19.00;99.90;;;;;;4994169;28;20065;-81
2022/07/17 10:30:31;;;;;;;3.45;0.90;;;19.00;99.90;;;;;;5022923;28;20404;-82
2022/07/17 10:33:05;;;;;;;3.38;0.70;;;19.00;99.90;;;;;;5010341;28;20147;-81
2022/07/17 10:35:47;;;;;;;2.35;0.90;;;19.10;99.90;;;;;;5020878;28;20060;-80
2022/07/17 10:38:14;;;;;;;5.97;0.85;;;19.30;99.90;;;;;;5014221;28;20136;-81
2022/07/17 10:40:41;;;;;;;3.85;0.77;;;19.30;99.90;;;;;;5055573;28;20052;-82
2022/07/17 10:43:09;;;;;;;4.97;0.80;;;19.40;99.90;;;;;;5027210;28;20132;-80
2022/07/17 10:45:44;;;;;;;2.15;0.90;;;19.30;99.90;;;;;;5035278;28;20064;-79
2022/07/17 10:48:22;;;;;;;3.53;0.70;;;19.10;99.90;;;;;;5023512;28;20071;-80
2022/07/17 10:50:51;;;;;;;5.35;0.68;;;19.20;99.90;;;;;;5030383;28;20084;-78
2022/07/17 10:53:29;;;;;;;1.83;0.60;;;19.30;99.90;;;;;;5058838;28;20086;-79
2022/07/17 10:59:21;;;;;;;4.13;1.13;;;19.50;99.90;;;;;;5028864;28;20566;-81
2022/07/17 11:01:59;;;;;;;3.65;1.20;;;19.50;99.90;;;;;;5047528;28;20172;-78
2022/07/17 11:04:37;;;;;;;2.03;0.70;;;19.50;99.90;;;;;;5048302;28;20063;-78
2022/07/17 11:07:21;;;;;;;2.90;0.82;;;19.50;99.90;;;;;;5013899;28;20416;-79
2022/07/17 11:09:50;;;;;;;1.75;0.73;;;19.50;99.90;;;;;;5043811;28;20128;-79
2022/07/17 11:12:17;;;;;;;2.97;1.05;;;19.50;99.90;;;;;;5028536;28;20488;-78
2022/07/17 11:14:42;;;;;;;5.57;1.00;;;19.60;99.90;;;;;;5038655;28;20049;-78
2022/07/17 11:17:08;;;;;;;4.72;1.13;;;19.60;99.90;;;;;;5013589;28;20451;-73
2022/07/17 11:19:42;;;;;;;1.83;0.80;;;19.70;99.90;;;;;;5035967;28;20096;-80
2022/07/17 11:22:10;;;;;;;2.78;0.80;;;19.70;99.90;;;;;;5018940;28;20079;-77
2022/07/17 11:24:42;;;;;;;2.20;1.00;;;19.80;99.90;;;;;;5031705;28;20045;-78
2022/07/17 11:27:11;;;;;;;;;;;19.80;99.90;;;;;;5013673;28;20300;-76
2022/07/17 11:29:40;;;;;;;3.65;1.02;;;19.90;99.90;;;;;;5028752;28;19931;-79
2022/07/17 11:32:07;;;;;;;2.63;0.80;;;20.00;99.90;;;;;;5035171;28;20397;-77
2022/07/17 11:34:33;;;;;;;4.72;0.90;;;20.00;99.90;;;;;;5025270;28;20118;-81
2022/07/17 11:37:15;;;;;;;2.28;0.93;;;20.00;99.90;;;;;;5015378;28;20257;-80
2022/07/17 11:39:43;;;;;;;3.22;0.77;;;20.00;99.90;;;;;;5026226;28;20128;-78
2022/07/17 11:42:12;;;;;;;2.63;0.88;;;20.00;99.90;;;;;;5023967;28;20048;-78
2022/07/17 11:44:41;;;;;;;2.92;0.85;;;20.20;99.90;;;;;;5025554;28;20038;-79
2022/07/17 11:47:10;;;;;;;1.58;0.90;;;20.30;99.90;;;;;;5014115;28;20368;-77
2022/07/17 11:49:40;;;;;;;1.75;0.80;;;20.30;99.90;;;;;;5015590;28;20503;-80
2022/07/17 11:52:19;;;;;;;2.65;0.80;;;20.40;99.90;;;;;;5036494;28;20447;-74
2022/07/17 11:54:51;;;;;;;2.38;1.00;;;20.60;99.90;;;;;;5033613;28;20044;-79
2022/07/17 11:57:27;;;;;;;3.40;1.00;;;20.60;99.90;;;;;;5016547;28;20315;-76
2022/07/17 12:00:04;;;;;;;4.38;1.15;;;20.50;99.90;;;;;;5044191;28;20562;-78
2022/07/17 12:02:34;;;;;;;3.75;1.42;;;20.50;99.90;;;;;;5037028;28;20072;-79
2022/07/17 12:05:00;;;;;;;3.13;1.10;;;20.60;99.90;;;;;;5018259;28;20349;-78
2022/07/17 12:07:41;;;;;;;3.13;1.30;;;20.70;99.90;;;;;;5025487;28;20046;-79
2022/07/17 12:10:17;;;;;;;3.65;1.30;;;20.70;99.90;;;;;;5034026;28;20143;-79
2022/07/17 12:13:09;;;;;;;2.58;0.98;;;20.70;99.90;;;;;;5021154;28;20186;-78
2022/07/17 12:15:46;;;;;;;4.15;1.10;;;20.60;99.90;;;;;;5041683;28;20049;-79
2022/07/17 12:18:23;;;;;;;2.22;1.13;;;20.70;99.90;;;;;;5022138;28;20056;-77
2022/07/17 12:20:57;;;;;;;2.67;1.20;;;20.90;99.90;;;;;;5024729;28;20046;-77
2022/07/17 12:23:38;;;;;;;2.83;1.45;;;20.70;99.90;;;;;;5033274;28;20045;-77
2022/07/17 12:29:48;;;;;;;2.33;1.27;;;20.90;99.90;;;;;;5038420;28;20060;-77
2022/07/17 12:32:17;;;;;;;2.25;1.10;;;21.30;99.90;;;;;;5028560;28;20060;-78
2022/07/17 12:34:55;;;;;;;4.07;1.50;;;21.30;99.90;;;;;;5054268;28;20056;-77
2022/07/17 12:37:31;;;;;;;2.67;1.42;;;21.40;99.90;;;;;;5016868;28;20192;-77
2022/07/17 12:40:16;;;;;;;4.50;1.70;;;21.30;99.90;;;;;;5048097;28;20060;-77
2022/07/17 12:42:46;;;;;;;4.50;1.58;;;21.20;99.90;;;;;;5025211;28;20080;-79
2022/07/17 12:45:13;;;;;;;5.88;1.80;;;21.40;99.90;;;;;;5035503;28;20033;-79
2022/07/17 12:47:50;;;;;;;2.80;1.50;;;21.30;99.90;;;;;;5024483;28;20045;-79
2022/07/17 12:50:35;;;;;;;5.00;1.90;;;21.40;99.90;;;;;;5034332;28;20092;-78
2022/07/17 12:53:18;;;;;;;6.03;1.80;;;21.30;99.90;;;;;;5017490;28;20049;-78
2022/07/17 12:55:51;;;;;;;4.32;1.95;;;21.20;99.90;;;;;;5038101;28;20049;-79
2022/07/17 12:58:32;;;;;;;2.15;1.52;;;21.40;99.90;;;;;;5028775;28;20048;-78
2022/07/17 13:01:31;;;;;;;6.38;2.00;;;21.60;99.90;;;;;;5006703;28;20069;-77
2022/07/17 13:04:03;;;;;;;5.53;1.67;;;21.60;99.90;;;;;;5031221;28;20051;-78
2022/07/17 13:07:07;;;;;;;;;;;21.80;99.90;;;;;;5030552;28;20142;-79
2022/07/17 13:09:41;;;;;;;5.03;2.00;;;21.90;99.90;;;;;;5036683;28;19925;-78